createdAt,value
2023-05-19T00:01:45.579Z,3.72
2023-05-19T00:04:16.864Z,5.90
2023-05-19T00:06:53.199Z,3.28
2023-05-19T00:09:23.904Z,3.75
2023-05-19T00:11:54.738Z,6.78
2023-05-19T00:14:25.505Z,6.03
2023-05-19T00:16:57.574Z,5.05
2023-05-19T00:19:28.256Z,12.23
2023-05-19T00:21:58.707Z,7.35
2023-05-19T00:24:29.180Z,5.63
2023-05-19T00:26:59.606Z,5.25
2023-05-19T00:29:30.635Z,2.40
2023-05-19T00:32:01.180Z,3.33
2023-05-19T00:34:31.710Z,2.53
2023-05-19T00:37:02.181Z,2.55
2023-05-19T00:39:32.598Z,2.40
2023-05-19T00:42:04.243Z,2.00
2023-05-19T00:44:34.645Z,3.70
2023-05-19T00:47:05.181Z,2.15
2023-05-19T00:49:35.569Z,3.90
2023-05-19T00:52:08.263Z,4.07
2023-05-19T00:54:38.857Z,1.50
2023-05-19T00:57:09.426Z,1.70
2023-05-19T00:59:39.980Z,1.73
2023-05-19T01:02:10.532Z,1.60
2023-05-19T01:04:43.283Z,1.67
2023-05-19T01:07:14.138Z,1.40
2023-05-19T01:09:44.872Z,1.95
2023-05-19T01:12:15.534Z,1.63
2023-05-19T01:14:49.245Z,1.48
2023-05-19T01:17:25.906Z,1.42
2023-05-19T01:20:03.714Z,1.77
2023-05-19T01:22:56.505Z,1.48
2023-05-19T01:25:49.457Z,1.60
2023-05-19T01:28:45.408Z,2.90
2023-05-19T01:31:18.033Z,4.22
2023-05-19T01:33:51.055Z,1.45
2023-05-19T01:36:24.756Z,2.40
2023-05-19T01:38:58.382Z,3.67
2023-05-19T01:41:31.037Z,2.38
2023-05-19T01:44:02.336Z,3.17
2023-05-19T01:46:32.930Z,1.10
2023-05-19T01:49:03.933Z,1.40
2023-05-19T01:51:34.356Z,1.52
2023-05-19T01:54:04.874Z,2.00
2023-05-19T01:56:54.744Z,2.60
2023-05-19T01:59:46.405Z,2.55
2023-05-19T02:02:39.224Z,4.00
2023-05-19T02:05:23.026Z,2.30
2023-05-19T02:08:07.551Z,3.92
2023-05-19T02:10:42.553Z,2.92
2023-05-19T02:13:17.142Z,4.10
2023-05-19T02:15:49.164Z,3.38
2023-05-19T02:18:21.853Z,4.07
2023-05-19T02:20:54.301Z,4.18
2023-05-19T02:23:25.342Z,4.30
2023-05-19T02:25:56.239Z,4.85
2023-05-19T02:28:29.869Z,5.35
2023-05-19T02:31:01.486Z,3.80
2023-05-19T02:33:31.937Z,3.78
2023-05-19T02:36:02.769Z,3.50
2023-05-19T02:38:33.215Z,2.72
2023-05-19T02:41:03.582Z,3.00
2023-05-19T02:43:34.059Z,5.05
2023-05-19T02:46:04.607Z,3.55
2023-05-19T02:48:35.114Z,4.30
2023-05-19T02:51:06.641Z,4.45
2023-05-19T02:53:37.449Z,3.33
2023-05-19T02:56:08.199Z,3.10
2023-05-19T02:58:38.460Z,3.03
2023-05-19T03:01:08.839Z,3.35
2023-05-19T03:03:39.548Z,3.10
2023-05-19T03:06:10.276Z,3.60
2023-05-19T03:08:42.355Z,5.18
2023-05-19T03:13:43.725Z,3.33
2023-05-19T03:16:15.574Z,2.70
2023-05-19T03:18:45.940Z,3.05
2023-05-19T03:21:16.494Z,2.78
2023-05-19T03:23:47.021Z,2.85
2023-05-19T03:26:17.478Z,2.08
2023-05-19T03:28:47.950Z,5.60
2023-05-19T03:31:18.510Z,1.98
2023-05-19T03:34:09.607Z,2.28
2023-05-19T03:36:43.061Z,2.75
2023-05-19T03:39:18.018Z,1.35
2023-05-19T03:41:51.517Z,1.75
2023-05-19T03:44:22.016Z,1.48
2023-05-19T03:46:52.574Z,3.70
2023-05-19T03:49:52.451Z,2.70
2023-05-19T03:52:49.024Z,1.83
2023-05-19T03:55:31.612Z,2.92
2023-05-19T03:58:02.197Z,2.15
2023-05-19T04:00:33.653Z,2.45
2023-05-19T04:03:04.851Z,4.45
2023-05-19T04:05:37.060Z,4.05
2023-05-19T04:08:07.712Z,4.10
2023-05-19T04:10:38.020Z,2.92
2023-05-19T04:13:08.462Z,2.67
2023-05-19T04:15:39.104Z,3.42
2023-05-19T04:18:09.648Z,3.85
2023-05-19T04:20:40.927Z,3.00
2023-05-19T04:23:12.402Z,2.85
2023-05-19T04:25:43.528Z,4.13
2023-05-19T04:28:14.723Z,2.85
2023-05-19T04:30:48.141Z,3.08
2023-05-19T04:33:19.366Z,4.18
2023-05-19T04:35:52.076Z,3.45
2023-05-19T04:38:23.624Z,11.77
2023-05-19T04:40:54.710Z,5.90
2023-05-19T04:43:25.143Z,6.78
2023-05-19T04:45:56.340Z,4.65
2023-05-19T04:48:27.606Z,2.80
2023-05-19T04:50:58.212Z,4.05
2023-05-19T04:53:28.839Z,3.15
2023-05-19T04:56:00.510Z,4.95
2023-05-19T04:58:31.735Z,6.67
2023-05-19T05:01:02.204Z,7.93
2023-05-19T05:03:34.997Z,5.82
2023-05-19T05:06:06.197Z,6.05
2023-05-19T05:08:36.562Z,6.72
2023-05-19T05:11:07.278Z,13.15
2023-05-19T05:13:38.217Z,5.30
2023-05-19T05:16:10.023Z,6.60
2023-05-19T05:18:44.387Z,7.05
2023-05-19T05:21:16.172Z,7.97
2023-05-19T05:23:47.267Z,46.17
2023-05-19T05:26:22.984Z,33.58
2023-05-19T05:28:58.679Z,15.55
2023-05-19T05:31:29.413Z,12.60
2023-05-19T05:34:00.535Z,11.30
2023-05-19T05:36:36.471Z,7.82
2023-05-19T05:39:07.251Z,8.68
2023-05-19T05:41:39.003Z,6.88
2023-05-19T05:44:13.662Z,8.73
2023-05-19T05:46:47.172Z,4.63
2023-05-19T05:49:18.253Z,8.23
2023-05-19T05:52:04.307Z,5.85
2023-05-19T05:54:43.866Z,8.13
2023-05-19T05:57:15.300Z,4.60
2023-05-19T05:59:48.689Z,3.87
2023-05-19T06:04:52.423Z,6.35
2023-05-19T06:07:23.983Z,4.97
2023-05-19T06:09:54.545Z,5.28
2023-05-19T06:12:25.140Z,6.78
2023-05-19T06:14:55.746Z,4.70
2023-05-19T06:20:18.393Z,5.78
2023-05-19T06:22:48.921Z,5.45
2023-05-19T06:25:22.319Z,5.70
2023-05-19T06:27:53.149Z,11.20
2023-05-19T06:30:25.167Z,4.07
2023-05-19T06:33:07.588Z,4.00
2023-05-19T06:35:38.135Z,3.65
2023-05-19T06:38:09.356Z,4.80
2023-05-19T06:40:40.039Z,3.88
2023-05-19T06:43:10.598Z,3.10
2023-05-19T06:46:05.989Z,6.80
2023-05-19T06:48:37.002Z,3.50
2023-05-19T06:51:08.023Z,3.67
2023-05-19T06:53:38.714Z,3.10
2023-05-19T06:56:11.736Z,3.78
2023-05-19T06:58:43.144Z,3.20
2023-05-19T07:01:14.463Z,3.15
2023-05-19T07:03:50.002Z,3.22
2023-05-19T07:06:20.781Z,3.30
2023-05-19T07:08:51.624Z,3.20
2023-05-19T07:11:23.285Z,2.60
2023-05-19T07:13:53.967Z,3.10
2023-05-19T07:16:29.848Z,3.08
2023-05-19T07:19:00.471Z,2.20
2023-05-19T07:21:30.850Z,2.60
2023-05-19T07:24:01.306Z,2.45
2023-05-19T07:26:32.144Z,2.47
2023-05-19T07:29:02.671Z,2.15
2023-05-19T07:31:33.110Z,1.83
2023-05-19T07:34:03.671Z,3.70
2023-05-19T07:36:34.195Z,2.08
2023-05-19T07:39:05.210Z,2.30
2023-05-19T07:41:36.457Z,1.92
2023-05-19T07:44:09.148Z,2.03
2023-05-19T07:46:40.213Z,2.08
2023-05-19T07:49:10.726Z,1.90
2023-05-19T07:51:43.325Z,2.03
2023-05-19T07:54:14.065Z,4.63
2023-05-19T07:56:44.558Z,1.98
2023-05-19T07:59:15.131Z,3.88
2023-05-19T08:01:45.772Z,3.13
2023-05-19T08:04:16.414Z,3.58
2023-05-19T08:06:47.007Z,2.28
2023-05-19T08:09:17.471Z,2.65
2023-05-19T08:11:48.632Z,1.63
2023-05-19T08:14:19.203Z,3.72
2023-05-19T08:16:49.734Z,1.83
2023-05-19T08:19:20.533Z,1.85
2023-05-19T08:21:51.241Z,2.25
2023-05-19T08:24:21.716Z,3.88
2023-05-19T08:26:52.253Z,4.50
2023-05-19T08:29:22.771Z,1.88
2023-05-19T08:31:54.548Z,3.05
2023-05-19T08:34:25.140Z,1.85
2023-05-19T08:36:59.238Z,1.73
2023-05-19T08:39:29.818Z,2.63
2023-05-19T08:42:00.376Z,1.50
2023-05-19T08:44:32.359Z,1.50
2023-05-19T08:47:14.167Z,1.40
2023-05-19T08:49:49.465Z,1.40
2023-05-19T08:52:33.414Z,1.55
2023-05-19T08:55:11.141Z,2.58
2023-05-19T08:57:42.850Z,1.58
2023-05-19T09:00:14.722Z,1.40
2023-05-19T09:02:55.128Z,1.50
2023-05-19T09:05:32.478Z,1.25
2023-05-19T09:08:04.356Z,1.55
2023-05-19T09:10:34.820Z,1.30
2023-05-19T09:13:06.969Z,1.17
2023-05-19T09:15:39.297Z,1.35
2023-05-19T09:20:45.847Z,1.35
2023-05-19T09:23:17.599Z,1.20
2023-05-19T09:25:55.530Z,1.58
2023-05-19T09:28:32.051Z,1.30
2023-05-19T09:31:09.336Z,1.40
2023-05-19T09:33:46.078Z,1.08
2023-05-19T09:36:16.838Z,1.10
2023-05-19T09:38:48.270Z,1.27
2023-05-19T09:41:36.588Z,1.30
2023-05-19T09:44:08.812Z,1.23
2023-05-19T09:46:39.295Z,1.10
2023-05-19T09:49:13.227Z,1.20
2023-05-19T09:51:47.343Z,1.08
2023-05-19T09:54:21.048Z,1.30
2023-05-19T09:57:01.666Z,1.25
2023-05-19T09:59:34.027Z,1.10
2023-05-19T10:02:05.448Z,1.20
2023-05-19T10:04:36.651Z,1.25
2023-05-19T10:07:08.165Z,0.80
2023-05-19T10:09:39.980Z,0.90
2023-05-19T10:12:13.029Z,1.13
2023-05-19T10:14:44.336Z,1.20
2023-05-19T10:17:15.544Z,1.02
2023-05-19T10:19:47.330Z,1.10
2023-05-19T10:22:17.822Z,0.90
2023-05-19T10:24:48.255Z,0.82
2023-05-19T10:27:20.503Z,0.98
2023-05-19T10:32:30.644Z,1.23
2023-05-19T10:35:14.229Z,1.10
2023-05-19T10:37:47.833Z,0.82
2023-05-19T10:40:35.932Z,1.08
2023-05-19T10:43:53.349Z,0.85
2023-05-19T10:46:33.435Z,1.10
2023-05-19T10:49:03.862Z,1.42
2023-05-19T10:51:35.620Z,1.00
2023-05-19T10:54:14.579Z,0.95
2023-05-19T10:56:49.213Z,1.20
2023-05-19T10:59:38.656Z,1.08
2023-05-19T11:02:11.002Z,1.42
2023-05-19T11:05:00.037Z,1.27
2023-05-19T11:07:31.378Z,1.20
2023-05-19T11:10:01.960Z,1.10
2023-05-19T11:12:46.209Z,1.20
2023-05-19T11:15:17.879Z,1.30
2023-05-19T11:17:51.023Z,1.40
2023-05-19T11:20:36.187Z,1.30
2023-05-19T11:23:08.539Z,1.30
2023-05-19T11:25:49.669Z,1.42
2023-05-19T11:28:22.565Z,1.48
2023-05-19T11:30:53.541Z,1.60
2023-05-19T11:33:28.612Z,1.42
2023-05-19T11:35:59.962Z,1.50
2023-05-19T11:38:34.186Z,2.67
2023-05-19T11:41:06.553Z,1.50
2023-05-19T11:43:37.258Z,1.20
2023-05-19T11:46:07.850Z,1.95
2023-05-19T11:48:38.628Z,1.92
2023-05-19T11:51:09.587Z,1.75
2023-05-19T11:53:40.200Z,1.75
2023-05-19T11:56:10.665Z,2.38
2023-05-19T11:58:41.068Z,2.50
2023-05-19T12:01:11.848Z,1.75
2023-05-19T12:03:42.441Z,2.20
2023-05-19T12:06:13.412Z,1.85
2023-05-19T12:08:43.911Z,2.53
2023-05-19T12:11:14.971Z,2.58
2023-05-19T12:13:46.180Z,1.60
2023-05-19T12:16:16.663Z,2.03
2023-05-19T12:18:47.129Z,2.10
2023-05-19T12:21:18.906Z,1.77
2023-05-19T12:23:49.517Z,2.00
2023-05-19T12:26:21.623Z,2.47
2023-05-19T12:28:54.405Z,2.88
2023-05-19T12:31:43.515Z,2.30
2023-05-19T12:34:15.164Z,2.15
2023-05-19T12:36:45.884Z,2.20
2023-05-19T12:39:17.729Z,2.20
2023-05-19T12:41:49.019Z,2.67
2023-05-19T12:44:19.822Z,2.17
2023-05-19T12:46:54.555Z,2.30
2023-05-19T12:49:25.072Z,2.40
2023-05-19T12:51:56.473Z,2.42
2023-05-19T12:54:27.781Z,2.90
2023-05-19T12:57:00.904Z,2.38
2023-05-19T12:59:38.927Z,2.30
2023-05-19T13:02:09.683Z,2.40
2023-05-19T13:04:40.172Z,2.53
2023-05-19T13:07:11.276Z,2.80
2023-05-19T13:09:41.720Z,2.30
2023-05-19T13:12:12.217Z,2.50
2023-05-19T13:14:45.139Z,3.05
2023-05-19T13:17:15.575Z,2.30
2023-05-19T13:19:46.193Z,3.05
2023-05-19T13:22:16.678Z,2.60
2023-05-19T13:24:47.033Z,3.17
2023-05-19T13:27:17.464Z,2.60
2023-05-19T13:29:47.861Z,2.72
2023-05-19T13:32:18.950Z,2.50
2023-05-19T13:34:49.433Z,2.75
2023-05-19T13:37:19.935Z,2.60
2023-05-19T13:39:50.424Z,2.63
2023-05-19T13:42:20.988Z,3.22
2023-05-19T13:45:09.971Z,2.72
2023-05-19T13:47:41.196Z,2.63
2023-05-19T13:50:12.113Z,4.03
2023-05-19T13:52:43.298Z,3.33
2023-05-19T13:55:13.875Z,3.80
2023-05-19T13:57:44.394Z,3.60
2023-05-19T14:00:15.382Z,2.90
2023-05-19T14:02:45.949Z,3.28
2023-05-19T14:05:16.444Z,2.75
2023-05-19T14:07:47.824Z,2.88
2023-05-19T14:10:18.417Z,3.27
2023-05-19T14:13:12.459Z,3.45
2023-05-19T14:15:39.437Z,4.00
2023-05-19T14:18:28.175Z,4.13
2023-05-19T14:20:58.685Z,3.63
2023-05-19T14:23:30.692Z,3.33
2023-05-19T14:26:01.278Z,3.17
2023-05-19T14:28:32.152Z,3.67
2023-05-19T14:31:02.653Z,3.35
2023-05-19T14:33:35.025Z,3.35
2023-05-19T14:36:06.925Z,5.68
2023-05-19T14:38:37.896Z,3.28
2023-05-19T14:41:09.435Z,3.47
2023-05-19T14:43:39.940Z,3.60
2023-05-19T14:46:10.526Z,3.38
2023-05-19T14:48:40.960Z,4.65
2023-05-19T14:51:11.604Z,3.53
2023-05-19T14:53:42.193Z,3.53
2023-05-19T14:56:12.633Z,3.78
2023-05-19T14:58:43.464Z,3.50
2023-05-19T15:01:13.917Z,3.30
2023-05-19T15:03:44.351Z,3.83
2023-05-19T15:06:15.008Z,3.95
2023-05-19T15:08:45.494Z,3.28
2023-05-19T15:11:16.022Z,3.88
2023-05-19T15:13:46.445Z,4.45
2023-05-19T15:16:18.293Z,3.70
2023-05-19T15:18:49.055Z,3.90
2023-05-19T15:21:20.036Z,4.68
2023-05-19T15:23:50.502Z,3.50
2023-05-19T15:26:20.898Z,3.72
2023-05-19T15:28:51.494Z,3.95
2023-05-19T15:31:22.004Z,3.67
2023-05-19T15:33:52.659Z,4.10
2023-05-19T15:36:23.373Z,4.25
2023-05-19T15:38:53.947Z,4.50
2023-05-19T15:41:24.447Z,4.00
2023-05-19T15:43:55.214Z,3.50
2023-05-19T15:46:25.926Z,4.03
2023-05-19T15:48:56.444Z,3.78
2023-05-19T15:51:27.210Z,3.72
2023-05-19T15:53:57.696Z,4.00
2023-05-19T15:56:28.208Z,3.70
2023-05-19T15:58:58.681Z,4.43
2023-05-19T16:01:29.313Z,3.92
2023-05-19T16:03:59.976Z,4.03
2023-05-19T16:06:30.496Z,4.15
2023-05-19T16:09:01.152Z,3.60
2023-05-19T16:11:31.937Z,4.00
2023-05-19T16:14:02.307Z,4.55
2023-05-19T16:16:32.837Z,4.70
2023-05-19T16:19:03.348Z,4.07
2023-05-19T16:21:34.100Z,5.25
2023-05-19T16:24:04.549Z,4.40
2023-05-19T16:26:35.923Z,3.92
2023-05-19T16:29:06.358Z,4.97
2023-05-19T16:31:36.994Z,4.65
2023-05-19T16:34:07.419Z,3.88
2023-05-19T16:36:38.026Z,5.10
2023-05-19T16:39:08.536Z,4.70
2023-05-19T16:41:38.984Z,4.32
2023-05-19T16:44:09.809Z,4.90
2023-05-19T16:46:40.129Z,4.45
2023-05-19T16:49:10.599Z,5.13
2023-05-19T16:51:41.163Z,4.90
2023-05-19T16:54:11.840Z,4.40
2023-05-19T16:56:42.399Z,4.43
2023-05-19T16:59:13.205Z,5.13
2023-05-19T17:01:43.638Z,5.00
2023-05-19T17:04:14.728Z,4.75
2023-05-19T17:06:45.227Z,4.70
2023-05-19T17:09:15.702Z,4.30
2023-05-19T17:11:46.221Z,4.80
2023-05-19T17:14:16.758Z,4.88
2023-05-19T17:16:47.382Z,4.40
2023-05-19T17:19:18.398Z,5.20
2023-05-19T17:21:49.119Z,4.55
2023-05-19T17:24:19.840Z,4.57
2023-05-19T17:26:50.276Z,4.95
2023-05-19T17:29:20.718Z,5.35
2023-05-19T17:31:51.445Z,4.97
2023-05-19T17:34:22.566Z,5.40
2023-05-19T17:36:53.026Z,5.05
2023-05-19T17:39:23.590Z,4.57
2023-05-19T17:41:54.001Z,5.38
2023-05-19T17:44:24.373Z,5.18
2023-05-19T17:46:54.885Z,5.35
2023-05-19T17:49:27.129Z,5.40
2023-05-19T17:51:58.100Z,5.20
2023-05-19T17:54:28.950Z,5.53
2023-05-19T17:57:03.558Z,5.30
2023-05-19T17:59:34.280Z,5.15
2023-05-19T18:02:05.295Z,5.40
2023-05-19T18:04:35.980Z,5.40
2023-05-19T18:07:08.951Z,5.03
2023-05-19T18:09:41.554Z,5.38
2023-05-19T18:12:12.538Z,5.43
2023-05-19T18:15:01.259Z,5.60
2023-05-19T18:17:31.974Z,5.47
2023-05-19T18:20:02.478Z,4.93
2023-05-19T18:22:33.372Z,5.38
2023-05-19T18:25:03.806Z,5.38
2023-05-19T18:27:35.014Z,5.10
2023-05-19T18:30:05.505Z,5.10
2023-05-19T18:32:36.462Z,5.57
2023-05-19T18:35:07.295Z,5.70
2023-05-19T18:37:38.322Z,5.55
2023-05-19T18:40:09.854Z,5.50
2023-05-19T18:42:40.591Z,6.05
2023-05-19T18:45:11.440Z,5.63
2023-05-19T18:47:42.261Z,5.65
2023-05-19T18:50:13.079Z,6.10
2023-05-19T18:52:43.524Z,6.35
2023-05-19T18:55:14.178Z,5.63
2023-05-19T18:57:44.436Z,5.60
2023-05-19T19:00:16.076Z,6.22
2023-05-19T19:02:46.557Z,5.85
2023-05-19T19:05:17.062Z,5.90
2023-05-19T19:07:47.694Z,5.82
2023-05-19T19:10:18.171Z,5.05
2023-05-19T19:12:48.581Z,5.82
2023-05-19T19:15:18.999Z,5.95
2023-05-19T19:17:49.464Z,5.68
2023-05-19T19:20:20.185Z,5.78
2023-05-19T19:22:50.713Z,6.00
2023-05-19T19:25:23.239Z,6.13
2023-05-19T19:27:54.294Z,5.75
2023-05-19T19:30:24.769Z,6.85
2023-05-19T19:32:57.000Z,5.68
2023-05-19T19:35:48.507Z,5.50
2023-05-19T19:38:19.153Z,5.47
2023-05-19T19:40:49.764Z,5.90
2023-05-19T19:43:20.400Z,5.28
2023-05-19T19:45:51.192Z,5.55
2023-05-19T19:48:21.801Z,5.65
2023-05-19T19:50:56.570Z,5.13
2023-05-19T19:53:27.109Z,4.80
2023-05-19T19:56:04.057Z,5.18
2023-05-19T19:58:34.627Z,5.90
2023-05-19T20:01:07.304Z,5.15
2023-05-19T20:03:38.507Z,5.20
2023-05-19T20:06:09.260Z,5.32
2023-05-19T20:08:39.861Z,5.53
2023-05-19T20:11:11.221Z,4.70
2023-05-19T20:13:41.773Z,4.83
2023-05-19T20:16:12.212Z,4.82
2023-05-19T20:18:42.901Z,5.20
2023-05-19T20:21:13.391Z,4.50
2023-05-19T20:23:44.464Z,5.30
2023-05-19T20:26:15.196Z,4.40
2023-05-19T20:28:45.949Z,4.47
2023-05-19T20:31:16.449Z,4.95
2023-05-19T20:33:46.926Z,4.90
2023-05-19T20:36:17.578Z,5.35
2023-05-19T20:38:49.384Z,4.68
2023-05-19T20:41:19.815Z,4.63
2023-05-19T20:43:50.213Z,4.07
2023-05-19T20:46:20.680Z,4.55
2023-05-19T20:48:51.089Z,5.90
2023-05-19T20:51:23.226Z,4.13
2023-05-19T20:56:26.615Z,4.65
2023-05-19T20:58:57.072Z,4.50
2023-05-19T21:01:27.743Z,4.78
2023-05-19T21:03:58.200Z,4.88
2023-05-19T21:06:28.636Z,4.47
2023-05-19T21:09:17.206Z,5.45
2023-05-19T21:11:49.406Z,4.80
2023-05-19T21:14:19.739Z,4.97
2023-05-19T21:16:57.277Z,5.13
2023-05-19T21:19:27.915Z,4.93
2023-05-19T21:21:58.729Z,5.25
2023-05-19T21:24:29.835Z,5.05
2023-05-19T21:27:00.665Z,5.03
2023-05-19T21:29:31.284Z,4.43
2023-05-19T21:32:01.878Z,5.05
2023-05-19T21:34:32.254Z,5.35
2023-05-19T21:37:02.717Z,4.55
2023-05-19T21:39:33.007Z,5.32
2023-05-19T21:42:03.479Z,4.75
2023-05-19T21:44:34.010Z,5.22
2023-05-19T21:47:04.584Z,4.68
2023-05-19T21:49:35.220Z,4.88
2023-05-19T21:52:06.060Z,5.80
2023-05-19T21:54:37.589Z,5.20
2023-05-19T21:57:08.222Z,4.83
2023-05-19T21:59:38.619Z,5.03
2023-05-19T22:02:09.129Z,4.93
2023-05-19T22:04:40.121Z,5.22
2023-05-19T22:07:10.565Z,5.28
2023-05-19T22:09:59.029Z,5.07
2023-05-19T22:12:29.460Z,5.03
2023-05-19T22:15:00.278Z,5.28
2023-05-19T22:17:31.476Z,5.13
2023-05-19T22:20:01.984Z,5.00
2023-05-19T22:22:32.586Z,4.88
2023-05-19T22:25:03.963Z,5.60
2023-05-19T22:27:34.536Z,5.27
2023-05-19T22:30:04.957Z,5.75
2023-05-19T22:32:36.670Z,6.05
2023-05-19T22:35:08.101Z,5.72
2023-05-19T22:37:38.527Z,5.50
2023-05-19T22:40:09.468Z,4.65
2023-05-19T22:42:39.784Z,5.60
2023-05-19T22:45:10.984Z,5.85
2023-05-19T22:47:41.470Z,5.63
2023-05-19T22:50:12.500Z,6.32
2023-05-19T22:52:42.904Z,5.75
2023-05-19T22:55:13.730Z,5.32
2023-05-19T22:57:44.386Z,7.00
2023-05-19T23:00:20.164Z,5.63
2023-05-19T23:02:50.869Z,5.25
2023-05-19T23:05:21.132Z,5.47
2023-05-19T23:07:51.489Z,5.78
2023-05-19T23:10:22.036Z,6.28
2023-05-19T23:12:53.067Z,6.25
2023-05-19T23:15:23.384Z,5.53
2023-05-19T23:17:53.987Z,4.97
2023-05-19T23:20:24.336Z,5.50
2023-05-19T23:22:54.794Z,5.65
2023-05-19T23:25:25.173Z,6.00
2023-05-19T23:27:56.005Z,5.78
2023-05-19T23:30:26.508Z,6.07
2023-05-19T23:32:57.066Z,5.60
2023-05-19T23:35:27.521Z,6.43
2023-05-19T23:37:57.987Z,5.60
2023-05-19T23:40:28.473Z,6.30
2023-05-19T23:42:58.878Z,6.75
2023-05-19T23:45:29.333Z,5.53
2023-05-19T23:48:00.736Z,5.30
2023-05-19T23:50:31.226Z,5.70
2023-05-19T23:53:02.270Z,5.97
2023-05-19T23:55:32.839Z,6.15
2023-05-19T23:58:03.574Z,5.75
